Impacts TAF Board
For situational awareness. Not to be used for flight planning purposes.
IDs:

KLAS - Las Vegas/McCarran I, NV, US

Issued at 1120 UTC 21 Sep 2018
Updated at 1245 UTC 21 Sep 2018
Potential Impact None Slight Moderate High
Time1156Z 21/13Z 21/14Z 21/15Z 21/16Z 21/17Z 21/18Z 21/19Z 21/20Z 21/21Z 21/22Z 21/23Z 22/00Z 22/01Z>>
Type OBS PRVL PRVL PRVL PRVL PRVL PRVL PRVL PRVL PRVL PRVL PRVL PRVL PRVL
VIS 10 >6 >6 >6 >6 >6 >6 >6 >6 >6 >6 >6 >6 >6
CIG -- -- -- -- -- -- -- -- -- -- -- -- -- --
Cover CLR SKC SKC SKC SKC SKC SKC SKC SKC SCT SCT SCT SCT SCT
FltCat VFR VFR VFR VFR VFR VFR VFR VFR VFR VFR VFR VFR VFR VFR
WX -- -- -- -- -- -- -- -- -- -- -- -- -- --
WDir VRB VRB VRB VRB VRB VRB 70 70 70 110 110 110 110 110
WSpd 0 5 5 5 5 5 7 7 7 8 8 8 8 8
WGst -- -- -- -- -- -- -- -- -- -- -- -- -- --
Raw TAF
KLAS 211120Z 2112/2218 VRB05KT P6SM SKC
  FM211800 07007KT P6SM SKC
  FM212100 11008KT P6SM SCT120
  FM220300 22007KT P6SM FEW120
  FM221300 VRB05KT P6SM SKC


Raw METAR
KLAS 211156Z 00000KT 10SM CLR 23/M01 A2997 RMK AO2 SLP121 T02331006 10278 20228 53010
KLAS 211056Z 02004KT 10SM CLR 23/01 A2995 RMK AO2 SLP117 T02330006
KLAS 210956Z 23003KT 10SM CLR 24/M03 A2994 RMK AO2 SLP113 T02441028

METAR Board
Radar Display
Forecast Discussion
For situational awareness. Not to be used for flight planning purposes.